Time;durP1;ratioP1;P1;durP2;ratioP2;P2;SDS_P1;SDS_P2;PMS_P1;PMS_P2;Temp;Humidity;BMP_temperature;BMP_pressure;BME280_temperature;BME280_humidity;BME280_pressure;Samples;Min_cycle;Max_cycle;Signal;HPM_P1;HPM_P2
2021/09/14 00:01:58;;;;;;;11.68;8.38;;;;;;;14.45;74.07;97756.29;1686866;84;21059;-79
2021/09/14 00:04:25;;;;;;;13.08;8.15;;;;;;;14.46;73.69;97758.01;1679574;85;21039;-80
2021/09/14 00:06:51;;;;;;;10.23;8.15;;;;;;;14.44;73.84;97759.87;1679313;85;21027;-80
2021/09/14 00:09:17;;;;;;;13.43;8.23;;;;;;;14.39;73.38;97752.11;1679338;85;20996;-79
2021/09/14 00:11:44;;;;;;;11.68;8.65;;;;;;;14.36;73.28;97750.92;1679523;85;21631;-80
2021/09/14 00:14:10;;;;;;;11.10;8.78;;;;;;;14.33;73.31;97758.59;1679573;85;20992;-80
2021/09/14 00:16:37;;;;;;;10.45;8.38;;;;;;;14.31;73.61;97754.28;1679305;85;21056;-80
2021/09/14 00:19:03;;;;;;;11.20;8.25;;;;;;;14.23;75.01;97750.20;1681566;84;21420;-80
2021/09/14 00:21:29;;;;;;;9.23;7.60;;;;;;;14.19;73.45;97746.41;1687396;84;21009;-80
2021/09/14 00:23:56;;;;;;;10.70;8.10;;;;;;;14.16;75.19;97747.91;1706191;84;21006;-80
2021/09/14 00:26:22;;;;;;;9.60;7.70;;;;;;;14.10;75.20;97745.94;1677780;85;21066;-80
2021/09/14 00:28:49;;;;;;;11.83;8.53;;;;;;;14.06;75.82;97744.34;1679410;85;21425;-80
2021/09/14 00:31:15;;;;;;;11.43;8.73;;;;;;;14.01;76.13;97747.70;1679593;85;21012;-80
2021/09/14 00:33:42;;;;;;;12.90;8.95;;;;;;;13.95;76.24;97745.34;1679485;85;21052;-80
2021/09/14 00:36:09;;;;;;;12.68;8.40;;;;;;;13.92;76.58;97744.14;1679527;85;21378;-79
2021/09/14 00:38:36;;;;;;;10.43;8.20;;;;;;;13.90;75.44;97750.87;1679570;85;21048;-79
2021/09/14 00:41:03;;;;;;;11.80;8.73;;;;;;;13.88;75.65;97747.88;1679580;85;20996;-79
2021/09/14 00:43:29;;;;;;;12.60;9.88;;;;;;;13.84;76.93;97745.84;1681552;84;20974;-80
2021/09/14 00:45:56;;;;;;;10.08;9.03;;;;;;;13.81;77.39;97753.50;1678148;85;21046;-79
2021/09/14 00:48:23;;;;;;;11.75;9.80;;;;;;;13.81;75.59;97747.30;1699427;84;21065;-80
2021/09/14 00:50:49;;;;;;;13.50;9.10;;;;;;;13.78;76.43;97744.31;1679356;85;20988;-80
2021/09/14 00:53:16;;;;;;;9.33;8.35;;;;;;;13.72;76.82;97751.27;1686432;85;21102;-80
2021/09/14 00:55:43;;;;;;;10.68;8.35;;;;;;;13.68;77.73;97746.56;1694299;85;21023;-79
2021/09/14 00:58:10;;;;;;;11.38;8.65;;;;;;;13.66;75.99;97746.23;1695412;83;21056;-79
2021/09/14 01:00:36;;;;;;;12.85;8.58;;;;;;;13.65;75.92;97745.36;1710673;83;21055;-79
2021/09/14 01:03:04;;;;;;;11.00;8.40;;;;;;;13.63;76.06;97740.58;1690303;83;21089;-79
2021/09/14 01:05:31;;;;;;;10.70;8.83;;;;;;;13.61;77.72;97747.77;1668701;85;21048;-79
2021/09/14 01:07:58;;;;;;;12.50;8.48;;;;;;;13.58;76.29;97746.10;1692561;83;21032;-80
2021/09/14 01:10:25;;;;;;;14.58;9.28;;;;;;;13.58;77.87;97758.57;1702783;83;21001;-79
2021/09/14 01:12:52;;;;;;;10.58;7.75;;;;;;;13.56;77.69;97753.31;1709269;83;21000;-80
2021/09/14 01:15:18;;;;;;;10.08;7.85;;;;;;;13.51;78.45;97748.66;1723270;83;21029;-80
2021/09/14 01:17:45;;;;;;;10.30;7.58;;;;;;;13.55;77.42;97749.38;1723494;83;21001;-79
2021/09/14 01:20:13;;;;;;;10.28;7.78;;;;;;;13.54;77.76;97745.00;1696302;83;20984;-80
2021/09/14 01:22:39;;;;;;;11.48;7.85;;;;;;;13.54;77.81;97752.98;1695854;83;21032;-79
2021/09/14 01:25:19;;;;;;;10.88;7.42;;;;;;;13.58;77.91;97750.58;1701427;83;21007;-80
2021/09/14 01:27:47;;;;;;;9.55;7.40;;;;;;;13.59;77.33;97746.49;1721857;83;20992;-80
2021/09/14 01:30:22;;;;;;;7.58;6.78;;;;;;;13.62;77.25;97748.15;1718367;83;21044;-81
2021/09/14 01:32:53;;;;;;;9.10;6.92;;;;;;;13.68;76.88;97745.68;1668908;85;21451;-81
2021/09/14 01:35:25;;;;;;;10.23;6.78;;;;;;;13.70;76.78;97746.49;1665176;86;21084;-81
2021/09/14 01:37:54;;;;;;;11.08;7.12;;;;;;;13.74;76.46;97754.71;1670059;85;20990;-81
2021/09/14 01:40:21;;;;;;;10.35;7.58;;;;;;;13.77;76.46;97751.04;1685562;84;21029;-81
2021/09/14 01:42:49;;;;;;;11.80;7.67;;;;;;;13.77;76.43;97754.58;1685534;85;21049;-80
2021/09/14 01:45:18;;;;;;;11.60;7.62;;;;;;;13.79;76.21;97750.03;1687819;84;21022;-80
2021/09/14 01:47:45;;;;;;;10.35;8.35;;;;;;;13.81;75.95;97749.97;1697764;83;21465;-81
2021/09/14 01:50:15;;;;;;;9.93;8.10;;;;;;;13.74;76.56;97746.72;1711847;83;21043;-80
2021/09/14 01:52:42;;;;;;;9.03;7.53;;;;;;;13.74;76.15;97749.38;1698790;83;21108;-80
2021/09/14 01:55:12;;;;;;;8.88;7.65;;;;;;;13.72;75.65;97746.81;1680682;85;21014;-81
2021/09/14 01:57:41;;;;;;;9.88;7.83;;;;;;;13.70;75.55;97748.67;1679865;85;20971;-79
2021/09/14 02:00:17;;;;;;;14.45;8.53;;;;;;;13.70;75.86;97750.48;1681946;85;20991;-81
2021/09/14 02:29:58;;;;;;;11.93;8.55;;;;;;;13.65;75.61;97743.15;1679780;85;21024;-80
2021/09/14 02:43:46;;;;;;;10.05;7.28;;;;;;;13.64;75.78;97763.61;1683749;84;21046;-80
2021/09/14 02:59:39;;;;;;;10.90;8.35;;;;;;;13.53;76.90;97762.76;1683721;85;20088;-81
2021/09/14 03:02:06;;;;;;;8.80;7.70;;;;;;;13.52;76.00;97766.36;1666995;85;21054;-81
2021/09/14 03:04:33;;;;;;;9.15;7.50;;;;;;;13.55;75.57;97762.69;1686026;84;21439;-80
2021/09/14 03:07:00;;;;;;;10.75;8.50;;;;;;;13.57;75.96;97768.34;1701106;84;21427;-80
2021/09/14 03:09:37;;;;;;;12.07;8.33;;;;;;;13.59;75.68;97769.61;1711615;84;21427;-81
2021/09/14 03:12:05;;;;;;;12.18;8.63;;;;;;;13.59;76.33;97766.46;1685052;85;20952;-81
2021/09/14 03:14:33;;;;;;;10.82;8.18;;;;;;;13.58;76.27;97768.73;1684825;85;21029;-81
2021/09/14 03:17:00;;;;;;;11.12;8.43;;;;;;;13.60;75.49;97766.01;1684935;85;20968;-81
2021/09/14 03:19:26;;;;;;;11.33;8.30;;;;;;;13.57;76.77;97766.14;1667107;85;21057;-81
2021/09/14 03:21:53;;;;;;;11.40;8.43;;;;;;;13.57;75.61;97764.80;1684950;85;20962;-81
2021/09/14 03:24:20;;;;;;;11.40;8.10;;;;;;;13.57;75.67;97772.80;1684843;85;21093;-81
2021/09/14 03:26:47;;;;;;;10.60;7.10;;;;;;;13.58;75.69;97770.06;1685011;85;21089;-81
2021/09/14 03:29:17;;;;;;;10.30;7.47;;;;;;;13.56;76.15;97775.06;1694561;84;20961;-81
2021/09/14 03:31:43;;;;;;;9.85;7.30;;;;;;;13.54;76.25;97772.47;1699792;84;20958;-81
2021/09/14 03:34:10;;;;;;;11.85;7.62;;;;;;;13.56;76.19;97779.94;1713349;84;21026;-81
2021/09/14 03:36:36;;;;;;;13.05;8.38;;;;;;;13.58;76.36;97786.04;1718636;83;21562;-81
2021/09/14 03:39:03;;;;;;;9.83;7.92;;;;;;;13.60;76.29;97788.64;1713428;84;21384;-81
2021/09/14 03:41:30;;;;;;;15.58;9.83;;;;;;;13.62;76.31;97789.42;1671572;84;20979;-81
2021/09/14 03:43:56;;;;;;;16.73;9.23;;;;;;;13.63;76.69;97793.84;1684916;85;21093;-81
2021/09/14 03:46:23;;;;;;;15.18;8.38;;;;;;;13.65;76.52;97793.75;1667151;85;20997;-81
2021/09/14 03:48:52;;;;;;;12.25;8.03;;;;;;;13.65;76.47;97796.41;1663481;86;20993;-81
2021/09/14 03:51:18;;;;;;;11.88;7.78;;;;;;;13.65;76.42;97797.73;1663427;85;21546;-81
2021/09/14 03:53:45;;;;;;;11.18;8.53;;;;;;;13.64;76.42;97809.33;1673832;84;21050;-81
2021/09/14 03:56:11;;;;;;;12.70;8.20;;;;;;;13.61;76.18;97810.82;1664839;84;21022;-81
2021/09/14 03:58:39;;;;;;;10.25;7.70;;;;;;;13.54;76.70;97811.08;1695451;84;20994;-81
2021/09/14 04:01:07;;;;;;;12.53;8.35;;;;;;;13.53;76.30;97808.02;1670989;85;21062;-81
2021/09/14 04:08:50;;;;;;;10.70;7.87;;;;;;;13.50;75.98;97809.96;1665006;85;21078;-81
2021/09/14 04:11:21;;;;;;;15.83;8.90;;;;;;;13.49;76.41;97808.23;1670894;86;21207;-81
2021/09/14 04:13:50;;;;;;;12.07;8.35;;;;;;;13.48;76.57;97815.80;1676915;84;21051;-81
2021/09/14 04:16:17;;;;;;;15.45;9.33;;;;;;;13.49;75.75;97814.41;1695548;84;21085;-81
2021/09/14 04:18:45;;;;;;;17.23;9.55;;;;;;;13.46;75.93;97814.53;1674137;84;21033;-80
2021/09/14 04:21:12;;;;;;;12.68;8.75;;;;;;;13.47;76.18;97810.96;1682205;84;21029;-81
2021/09/14 04:23:38;;;;;;;12.85;8.58;;;;;;;13.46;75.81;97805.22;1694094;84;21101;-81
2021/09/14 04:26:06;;;;;;;11.40;8.65;;;;;;;13.44;76.43;97809.72;1679659;84;21123;-81
2021/09/14 04:28:34;;;;;;;11.08;8.75;;;;;;;13.43;77.79;97813.33;1672368;86;21053;-81
2021/09/14 04:31:01;;;;;;;11.08;8.83;;;;;;;13.41;77.64;97812.54;1672270;86;21045;-81
2021/09/14 04:33:29;;;;;;;12.28;8.00;;;;;;;13.40;76.98;97814.78;1664330;86;21069;-81
2021/09/14 04:35:56;;;;;;;12.13;8.43;;;;;;;13.43;77.04;97819.98;1666987;85;21021;-81
2021/09/14 04:38:24;;;;;;;10.25;8.18;;;;;;;13.43;77.08;97814.66;1657476;86;21038;-81
2021/09/14 04:40:52;;;;;;;12.28;8.58;;;;;;;13.45;76.66;97819.43;1664832;85;20981;-81
2021/09/14 04:43:19;;;;;;;10.55;8.30;;;;;;;13.45;76.47;97814.98;1658628;84;21037;-81
2021/09/14 04:45:45;;;;;;;15.48;8.88;;;;;;;13.47;76.19;97818.95;1688223;84;21411;-81
2021/09/14 04:48:12;;;;;;;13.13;8.88;;;;;;;13.48;76.87;97819.80;1673956;84;21098;-81
2021/09/14 04:50:39;;;;;;;10.40;8.28;;;;;;;13.49;76.32;97822.39;1699101;84;20993;-82
2021/09/14 04:53:07;;;;;;;12.13;8.45;;;;;;;13.50;75.93;97818.83;1657944;86;21026;-81
2021/09/14 04:55:35;;;;;;;12.07;8.30;;;;;;;13.54;76.20;97828.37;1679011;84;21046;-81
2021/09/14 04:58:02;;;;;;;10.50;8.50;;;;;;;13.54;76.04;97831.05;1648919;87;21453;-81
2021/09/14 05:00:29;;;;;;;14.47;8.58;;;;;;;13.56;76.25;97832.31;1653710;85;21075;-81
2021/09/14 05:02:56;;;;;;;10.28;8.23;;;;;;;13.58;76.42;97831.80;1677442;85;21565;-81
2021/09/14 05:05:22;;;;;;;11.25;8.93;;;;;;;13.59;76.46;97831.70;1672219;85;21103;-81
2021/09/14 05:07:49;;;;;;;12.03;8.70;;;;;;;13.60;76.56;97835.23;1653925;85;21436;-81
2021/09/14 05:10:16;;;;;;;11.30;8.18;;;;;;;13.61;76.56;97831.63;1686381;84;21511;-81
2021/09/14 05:12:45;;;;;;;13.10;8.75;;;;;;;13.65;76.06;97832.36;1699510;84;21034;-81
2021/09/14 05:15:12;;;;;;;13.85;8.70;;;;;;;13.68;75.93;97832.23;1679339;84;21418;-81
2021/09/14 05:17:49;;;;;;;11.97;8.55;;;;;;;13.71;76.62;97826.78;1598248;89;21029;-81
2021/09/14 05:20:29;;;;;;;10.75;8.60;;;;;;;13.72;76.12;97825.38;1692567;85;21023;-80
2021/09/14 05:23:10;;;;;;;11.40;8.75;;;;;;;13.76;76.06;97831.43;1694305;85;21006;-80
2021/09/14 05:25:24;;;;;;;12.75;8.40;;;;;;;13.78;76.03;97829.55;1691369;85;21425;-79
2021/09/14 05:27:51;;;;;;;10.43;8.50;;;;;;;13.82;76.03;97827.59;1694280;83;21073;-80
2021/09/14 05:30:18;;;;;;;11.53;8.88;;;;;;;13.84;76.13;97826.59;1692995;85;20985;-80
2021/09/14 05:32:45;;;;;;;12.68;9.03;;;;;;;13.86;76.29;97822.08;1694164;83;21420;-79
2021/09/14 05:35:12;;;;;;;11.00;8.58;;;;;;;13.87;76.46;97830.92;1685510;85;21443;-80
2021/09/14 05:37:40;;;;;;;12.70;8.23;;;;;;;13.95;75.79;97835.44;1701137;83;20987;-80
2021/09/14 05:40:10;;;;;;;10.82;8.23;;;;;;;14.02;75.58;97834.69;1705562;83;21455;-80
2021/09/14 05:42:38;;;;;;;12.30;7.80;;;;;;;14.09;75.57;97840.60;1672868;85;21078;-80
2021/09/14 05:45:05;;;;;;;11.08;7.67;;;;;;;14.19;75.47;97833.02;1666534;85;21163;-80
2021/09/14 05:47:32;;;;;;;10.00;7.15;;;;;;;14.28;75.39;97833.08;1694253;84;20998;-80
2021/09/14 05:50:00;;;;;;;10.30;7.75;;;;;;;14.37;75.08;97836.16;1694378;85;21031;-80
2021/09/14 05:52:27;;;;;;;11.75;7.40;;;;;;;14.47;74.73;97835.72;1694617;85;21002;-81
2021/09/14 05:54:54;;;;;;;13.08;7.30;;;;;;;14.58;74.77;97829.39;1686380;85;21075;-81
2021/09/14 05:57:21;;;;;;;12.05;7.40;;;;;;;14.66;74.38;97830.38;1681414;85;20979;-80
2021/09/14 05:59:50;;;;;;;10.13;7.60;;;;;;;14.73;73.92;97831.79;1681579;85;21011;-80
2021/09/14 06:02:18;;;;;;;11.50;7.78;;;;;;;14.82;74.21;97838.98;1680381;85;21009;-80
2021/09/14 06:04:45;;;;;;;12.88;8.60;;;;;;;14.94;74.36;97832.18;1684052;84;21061;-81
2021/09/14 06:07:12;;;;;;;13.22;8.30;;;;;;;15.01;74.19;97837.13;1701364;84;20990;-81
2021/09/14 06:09:39;;;;;;;13.32;8.43;;;;;;;15.07;73.96;97837.27;1695151;84;21002;-81
2021/09/14 06:12:06;;;;;;;12.65;8.58;;;;;;;15.15;73.71;97844.42;1709643;84;21025;-80
2021/09/14 06:14:33;;;;;;;13.85;9.10;;;;;;;15.24;73.56;97848.42;1695457;83;21019;-80
2021/09/14 06:17:00;;;;;;;12.82;9.40;;;;;;;15.31;73.21;97843.17;1680801;85;21042;-80
2021/09/14 06:19:28;;;;;;;14.78;9.83;;;;;;;15.38;73.05;97843.73;1677428;85;20999;-80
2021/09/14 06:21:55;;;;;;;19.02;10.32;;;;;;;15.44;73.05;97848.74;1661746;85;20998;-80
2021/09/14 06:24:22;;;;;;;14.65;9.23;;;;;;;15.53;72.84;97851.40;1681326;85;21058;-80
2021/09/14 06:26:50;;;;;;;19.12;10.28;;;;;;;15.62;72.87;97854.54;1689926;84;21029;-81
2021/09/14 06:29:17;;;;;;;13.03;10.10;;;;;;;15.69;72.80;97851.46;1697199;84;21005;-81
2021/09/14 06:31:43;;;;;;;13.93;9.48;;;;;;;15.79;72.62;97849.64;1694432;84;21097;-80
2021/09/14 06:34:11;;;;;;;16.00;9.53;;;;;;;15.88;72.47;97850.95;1686331;84;21013;-80
2021/09/14 06:36:38;;;;;;;13.28;9.88;;;;;;;15.95;72.17;97853.23;1680471;85;20975;-80
2021/09/14 06:39:05;;;;;;;14.60;9.05;;;;;;;16.05;71.99;97852.73;1661836;85;21009;-81
2021/09/14 06:41:31;;;;;;;14.78;9.00;;;;;;;16.14;70.83;97861.60;1683653;84;21427;-80
2021/09/14 06:44:00;;;;;;;12.90;9.23;;;;;;;16.23;70.89;97862.44;1693135;84;20989;-80
2021/09/14 06:46:45;;;;;;;13.45;8.60;;;;;;;16.33;70.86;97851.23;1681532;84;21097;-80
2021/09/14 06:49:13;;;;;;;13.83;8.60;;;;;;;16.42;70.81;97856.54;1669156;85;21048;-79
2021/09/14 06:51:40;;;;;;;11.63;8.50;;;;;;;16.53;70.33;97855.95;1661315;85;21405;-81
2021/09/14 06:54:06;;;;;;;12.88;8.93;;;;;;;16.64;70.32;97853.52;1680488;85;21055;-79
2021/09/14 06:56:33;;;;;;;12.93;9.53;;;;;;;16.78;69.89;97854.55;1666059;86;21003;-82
2021/09/14 06:58:59;;;;;;;12.95;8.60;;;;;;;16.89;69.91;97848.09;1646975;86;21468;-81
2021/09/14 07:01:27;;;;;;;14.73;8.13;;;;;;;17.04;69.96;97850.40;1648455;86;21011;-79
2021/09/14 07:03:55;;;;;;;13.20;8.70;;;;;;;17.20;69.77;97853.50;1645930;87;20972;-81
2021/09/14 07:06:22;;;;;;;9.65;8.20;;;;;;;17.38;69.17;97848.86;1642436;86;21544;-81
2021/09/14 07:08:49;;;;;;;11.33;8.53;;;;;;;17.59;67.53;97847.17;1638162;86;21006;-79
2021/09/14 07:11:16;;;;;;;9.13;7.15;;;;;;;17.83;67.90;97839.47;1612860;88;21006;-87
2021/09/14 07:13:43;;;;;;;10.93;7.35;;;;;;;18.09;66.63;97849.56;1649744;87;21094;-80
2021/09/14 07:16:09;;;;;;;10.85;6.83;;;;;;;18.33;66.94;97847.13;1648884;85;21441;-77
2021/09/14 07:18:38;;;;;;;8.45;7.00;;;;;;;18.57;66.59;97847.86;1648120;86;21047;-77
2021/09/14 07:21:05;;;;;;;11.20;7.35;;;;;;;18.77;65.72;97843.85;1648315;87;21591;-77
2021/09/14 07:23:32;;;;;;;9.20;6.33;;;;;;;18.95;64.84;97851.20;1597881;89;21061;-78
2021/09/14 07:25:59;;;;;;;12.73;6.92;;;;;;;19.12;63.08;97855.95;1648382;87;20967;-79
2021/09/14 07:28:28;;;;;;;9.78;6.22;;;;;;;19.24;62.19;97857.82;1645376;87;20970;-78
2021/09/14 07:30:55;;;;;;;7.92;6.30;;;;;;;19.41;63.26;97854.92;1644988;87;21457;-78
2021/09/14 07:33:22;;;;;;;10.32;6.05;;;;;;;19.52;63.19;97856.42;1650030;87;21086;-78
2021/09/14 07:35:48;;;;;;;9.80;6.12;;;;;;;19.62;62.14;97857.50;1609394;88;21034;-77
2021/09/14 07:38:15;;;;;;;9.93;5.50;;;;;;;19.71;61.90;97856.47;1609671;89;20976;-77
2021/09/14 07:40:41;;;;;;;7.72;5.90;;;;;;;19.76;62.05;97859.22;1650051;87;21087;-77
2021/09/14 07:43:07;;;;;;;10.68;6.08;;;;;;;19.82;60.71;97861.10;1648479;87;20984;-77
2021/09/14 07:45:34;;;;;;;17.77;15.88;;;;;;;19.85;61.30;97860.90;1648570;87;21015;-77
2021/09/14 07:48:01;;;;;;;16.70;11.83;;;;;;;19.86;61.06;97864.83;1649408;87;21020;-78
2021/09/14 07:50:27;;;;;;;11.20;8.33;;;;;;;19.89;60.75;97859.72;1649945;86;21520;-77
2021/09/14 07:52:54;;;;;;;11.08;6.80;;;;;;;19.93;60.04;97861.20;1650043;87;21006;-77
2021/09/14 07:55:21;;;;;;;11.10;5.90;;;;;;;19.96;59.83;97867.72;1665138;85;20988;-80
2021/09/14 07:57:48;;;;;;;7.85;5.95;;;;;;;19.99;57.48;97868.89;1655857;86;21012;-75
2021/09/14 08:00:15;;;;;;;10.08;6.53;;;;;;;20.00;57.44;97865.23;1675716;85;20979;-78
2021/09/14 08:02:41;;;;;;;9.65;5.90;;;;;;;20.05;57.92;97859.03;1681458;84;21019;-77
2021/09/14 08:05:09;;;;;;;8.68;5.90;;;;;;;20.14;58.53;97860.20;1681461;85;21457;-78
2021/09/14 08:07:35;;;;;;;7.53;5.62;;;;;;;20.21;57.31;97855.25;1672392;85;21013;-78
2021/09/14 08:10:03;;;;;;;9.45;6.17;;;;;;;20.30;57.84;97859.09;1682503;84;21034;-77
2021/09/14 08:12:29;;;;;;;8.80;6.22;;;;;;;20.35;56.70;97855.62;1666802;86;21001;-77
2021/09/14 08:14:56;;;;;;;11.68;6.83;;;;;;;20.40;56.48;97846.73;1673238;85;20987;-77
2021/09/14 08:17:23;;;;;;;7.85;6.12;;;;;;;20.46;56.76;97854.82;1680872;85;20993;-77
2021/09/14 08:19:49;;;;;;;9.80;5.87;;;;;;;20.51;57.01;97843.73;1681197;84;21001;-77
2021/09/14 08:22:17;;;;;;;9.75;5.58;;;;;;;20.57;56.76;97845.97;1681367;85;21032;-77
2021/09/14 08:24:43;;;;;;;8.65;5.53;;;;;;;20.62;55.77;97841.11;1681172;85;21044;-77
2021/09/14 08:27:10;;;;;;;8.60;5.90;;;;;;;20.70;54.97;97841.88;1680529;85;21453;-77
2021/09/14 08:29:37;;;;;;;8.08;6.03;;;;;;;20.81;55.94;97842.44;1681370;85;21023;-77
2021/09/14 08:32:03;;;;;;;9.38;5.45;;;;;;;20.88;55.95;97840.19;1681130;84;21464;-77
2021/09/14 08:34:31;;;;;;;6.92;5.75;;;;;;;20.95;55.57;97835.58;1673240;85;20959;-77
2021/09/14 08:36:58;;;;;;;8.80;5.40;;;;;;;21.02;55.31;97835.97;1652420;87;20992;-78
2021/09/14 08:39:24;;;;;;;10.43;5.80;;;;;;;21.10;55.10;97835.39;1654579;85;21444;-77
2021/09/14 08:41:51;;;;;;;10.15;6.30;;;;;;;21.20;53.85;97832.84;1652550;86;21081;-77
2021/09/14 08:44:19;;;;;;;6.25;5.40;;;;;;;21.28;53.22;97833.12;1669866;85;21042;-76
2021/09/14 08:46:47;;;;;;;9.43;5.78;;;;;;;21.38;52.23;97831.08;1681060;85;21737;-76
2021/09/14 08:49:14;;;;;;;8.05;5.70;;;;;;;21.52;53.69;97828.17;1681375;85;21025;-77
2021/09/14 08:51:42;;;;;;;11.05;6.40;;;;;;;21.61;52.05;97829.29;1676586;85;21038;-76
2021/09/14 08:54:09;;;;;;;9.40;6.15;;;;;;;21.68;52.95;97830.55;1665121;85;21020;-77
2021/09/14 08:56:36;;;;;;;8.98;5.80;;;;;;;21.71;52.94;97819.53;1673178;85;21021;-76
2021/09/14 08:59:04;;;;;;;6.60;5.58;;;;;;;21.79;52.95;97822.13;1679101;85;21025;-76
2021/09/14 09:01:32;;;;;;;10.58;6.20;;;;;;;21.86;53.14;97814.77;1679407;85;21049;-76
2021/09/14 09:04:06;;;;;;;10.38;6.35;;;;;;;21.96;53.12;97813.53;1679190;85;20963;-77
2021/09/14 09:06:40;;;;;;;10.03;6.28;;;;;;;22.06;53.19;97811.45;1679310;85;21011;-78
2021/09/14 09:09:13;;;;;;;7.53;6.20;;;;;;;22.11;52.03;97808.77;1679417;85;21114;-78
2021/09/14 09:12:03;;;;;;;9.23;6.22;;;;;;;22.18;50.61;97817.23;1679310;85;21007;-77
2021/09/14 09:14:42;;;;;;;11.00;6.50;;;;;;;22.24;49.93;97808.63;1679257;85;21488;-78
2021/09/14 09:17:15;;;;;;;15.43;6.00;;;;;;;22.34;50.08;97807.38;1679194;85;21455;-78
2021/09/14 09:19:57;;;;;;;11.85;6.53;;;;;;;22.45;50.88;97802.97;1679358;85;21439;-75
2021/09/14 09:22:25;;;;;;;10.75;6.50;;;;;;;22.53;50.14;97806.78;1678800;85;21003;-75
2021/09/14 09:24:54;;;;;;;8.18;6.15;;;;;;;22.60;50.48;97806.27;1679294;85;21027;-76
2021/09/14 09:27:24;;;;;;;13.68;6.40;;;;;;;22.66;50.81;97798.52;1679244;85;21000;-77
2021/09/14 09:30:05;;;;;;;12.07;6.40;;;;;;;22.74;50.85;97795.66;1679415;85;21107;-77
2021/09/14 09:32:47;;;;;;;10.78;6.37;;;;;;;22.81;49.09;97795.05;1678646;85;21003;-76
2021/09/14 09:35:33;;;;;;;8.48;6.40;;;;;;;22.89;49.05;97793.05;1678587;85;21063;-77
2021/09/14 09:38:01;;;;;;;17.37;7.25;;;;;;;23.00;49.83;97795.34;1679378;85;21143;-77
2021/09/14 09:40:38;;;;;;;11.70;6.95;;;;;;;23.07;48.90;97796.53;1679223;85;21034;-77
2021/09/14 09:43:08;;;;;;;18.42;6.62;;;;;;;23.16;49.81;97794.40;1679318;85;21090;-77
2021/09/14 09:45:45;;;;;;;12.05;6.97;;;;;;;23.23;49.13;97791.16;1679464;85;21027;-77
2021/09/14 09:48:14;;;;;;;13.13;7.17;;;;;;;23.26;48.89;97789.56;1678692;85;21033;-77
2021/09/14 09:50:42;;;;;;;15.90;10.23;;;;;;;23.37;49.79;97798.15;1679447;85;21421;-78
2021/09/14 09:53:11;;;;;;;12.40;7.37;;;;;;;23.47;49.64;97792.30;1679307;85;21027;-79
2021/09/14 09:55:39;;;;;;;10.00;6.87;;;;;;;23.47;49.64;97792.30;1680009;84;21031;-77
2021/09/14 09:58:08;;;;;;;12.88;5.95;;;;;;;23.64;49.37;97784.56;1681218;85;21031;-77
2021/09/14 10:00:39;;;;;;;11.08;6.45;;;;;;;23.64;49.37;97784.56;1681095;85;21369;-77
2021/09/14 10:03:18;;;;;;;13.75;6.37;;;;;;;23.70;48.50;97782.66;1681303;84;21433;-77
2021/09/14 10:05:49;;;;;;;14.85;6.60;;;;;;;23.76;48.94;97769.97;1681297;85;21420;-77
2021/09/14 10:08:20;;;;;;;11.80;5.83;;;;;;;23.95;48.75;97779.19;1681225;85;21114;-79
2021/09/14 10:10:58;;;;;;;10.08;6.10;;;;;;;24.07;48.70;97778.08;1665650;86;21071;-78
2021/09/14 10:13:40;;;;;;;17.85;6.83;;;;;;;24.19;47.84;97774.80;1653570;86;21061;-78
2021/09/14 10:16:09;;;;;;;16.48;6.25;;;;;;;24.29;47.67;97768.56;1665403;86;21068;-78
2021/09/14 10:18:37;;;;;;;9.58;6.03;;;;;;;24.39;46.02;97767.60;1675208;85;20959;-78
2021/09/14 10:21:04;;;;;;;11.35;6.58;;;;;;;24.50;46.66;97764.41;1676355;86;21488;-77
2021/09/14 10:23:35;;;;;;;9.25;5.95;;;;;;;24.63;47.33;97764.98;1676417;86;21003;-78
2021/09/14 10:26:08;;;;;;;8.95;6.33;;;;;;;24.73;46.98;97762.78;1676260;84;21037;-78
2021/09/14 10:28:48;;;;;;;19.35;6.35;;;;;;;24.84;46.08;97759.98;1675306;85;21028;-78
2021/09/14 10:31:24;;;;;;;7.67;6.50;;;;;;;24.91;44.97;97748.92;1676228;86;21031;-79
2021/09/14 10:34:07;;;;;;;11.35;6.17;;;;;;;25.04;44.74;97749.98;1676482;86;21050;-78
2021/09/14 10:36:37;;;;;;;14.03;6.45;;;;;;;25.42;45.60;97751.41;1666597;85;21057;-77
2021/09/14 10:39:22;;;;;;;13.08;6.35;;;;;;;26.57;43.82;97750.92;1655653;86;21044;-77
2021/09/14 10:41:53;;;;;;;9.23;5.65;;;;;;;27.67;40.14;97739.80;1655946;87;21033;-77
2021/09/14 10:44:32;;;;;;;8.23;5.72;;;;;;;28.73;38.39;97733.23;1662421;86;20990;-77
2021/09/14 10:47:11;;;;;;;9.45;6.17;;;;;;;29.64;37.30;97730.50;1676287;86;21481;-76
2021/09/14 10:50:00;;;;;;;8.20;5.90;;;;;;;30.63;36.42;97730.30;1676373;86;21007;-78
2021/09/14 10:52:41;;;;;;;10.85;6.03;;;;;;;30.98;31.49;97725.78;1676350;85;21075;-77
2021/09/14 10:55:15;;;;;;;7.83;6.10;;;;;;;31.69;31.19;97724.13;1675922;85;21461;-78
2021/09/14 10:57:46;;;;;;;9.18;6.72;;;;;;;31.95;31.33;97709.64;1658906;85;21054;-77
2021/09/14 11:00:21;;;;;;;9.78;6.05;;;;;;;32.73;32.05;97709.63;1675530;85;21464;-76
2021/09/14 11:02:59;;;;;;;8.58;5.50;;;;;;;33.09;31.25;97714.25;1675933;85;21055;-77
2021/09/14 11:05:32;;;;;;;13.35;6.25;;;;;;;32.33;31.96;97714.98;1679263;85;20999;-78
2021/09/14 11:08:01;;;;;;;7.53;5.97;;;;;;;31.37;30.35;97730.27;1675218;85;20980;-79
2021/09/14 11:10:35;;;;;;;7.83;6.45;;;;;;;30.64;31.72;97723.78;1647625;87;21043;-79
2021/09/14 11:13:03;;;;;;;13.05;6.78;;;;;;;30.10;32.71;97730.88;1647255;87;21071;-78
2021/09/14 11:15:29;;;;;;;7.35;5.75;;;;;;;29.61;32.67;97730.01;1670280;86;21442;-79
2021/09/14 11:17:56;;;;;;;6.78;5.75;;;;;;;29.23;33.34;97730.02;1676249;85;20972;-78
2021/09/14 11:20:26;;;;;;;10.72;5.97;;;;;;;28.95;34.04;97730.89;1676328;86;21011;-79
2021/09/14 11:22:55;;;;;;;9.18;6.20;;;;;;;28.70;33.43;97733.56;1676230;86;21035;-78
2021/09/14 11:25:26;;;;;;;9.10;6.37;;;;;;;28.75;35.00;97728.45;1650981;86;21059;-77
2021/09/14 11:28:02;;;;;;;8.35;5.80;;;;;;;29.23;35.06;97725.93;1647499;87;21486;-77
2021/09/14 11:30:32;;;;;;;7.15;5.67;;;;;;;30.18;34.13;97724.55;1647746;87;21074;-76
2021/09/14 11:33:00;;;;;;;7.75;6.00;;;;;;;31.30;32.56;97719.73;1647478;87;21024;-76
2021/09/14 11:35:36;;;;;;;7.72;5.80;;;;;;;32.27;31.63;97723.98;1674327;86;21108;-76
2021/09/14 11:38:07;;;;;;;10.98;6.37;;;;;;;33.09;30.48;97716.13;1676161;86;21415;-78
2021/09/14 11:40:45;;;;;;;9.00;6.40;;;;;;;33.51;29.86;97715.73;1674600;85;21054;-78
2021/09/14 11:43:23;;;;;;;9.43;5.90;;;;;;;33.17;30.81;97716.00;1675899;86;21062;-76
2021/09/14 11:45:54;;;;;;;8.50;5.65;;;;;;;34.04;31.02;97708.87;1676688;86;21377;-79
2021/09/14 11:48:27;;;;;;;7.92;5.72;;;;;;;33.55;30.98;97706.59;1676218;85;20987;-82
2021/09/14 11:51:11;;;;;;;;;;;;;;;32.77;31.36;97715.06;1678863;86;21433;-82
2021/09/14 11:53:42;;;;;;;9.35;6.72;;;;;;;31.87;32.06;97718.81;1676157;86;20152;-81
2021/09/14 11:56:15;;;;;;;11.53;7.25;;;;;;;31.09;33.66;97726.70;1672607;85;21111;-83
2021/09/14 11:58:44;;;;;;;12.15;7.75;;;;;;;30.56;34.55;97722.79;1670052;86;21075;-82
2021/09/14 12:01:13;;;;;;;8.93;6.90;;;;;;;30.07;35.21;97721.66;1670049;86;21406;-83
2021/09/14 12:03:44;;;;;;;10.98;7.03;;;;;;;29.51;35.84;97728.32;1655279;86;20988;-82
2021/09/14 12:06:15;;;;;;;9.75;7.03;;;;;;;29.01;36.91;97729.36;1642757;87;21051;-83
2021/09/14 12:08:43;;;;;;;11.83;7.00;;;;;;;28.42;37.32;97732.47;1641739;87;21067;-83
2021/09/14 12:11:13;;;;;;;8.28;6.60;;;;;;;28.19;37.57;97734.43;1650057;87;21033;-83
2021/09/14 12:13:44;;;;;;;6.90;5.80;;;;;;;27.83;38.01;97746.84;1667465;85;21003;-82
2021/09/14 12:16:24;;;;;;;4.83;4.40;;;;;;;27.42;37.34;97741.48;1677034;85;21035;-79
2021/09/14 12:18:45;;;;;;;5.03;4.37;;;;;;;26.87;37.51;97744.23;1675956;85;21054;-77
2021/09/14 12:21:12;;;;;;;4.95;4.30;;;;;;;26.56;37.51;97738.31;1677185;85;21043;-78
2021/09/14 12:23:39;;;;;;;4.58;3.77;;;;;;;26.43;37.99;97738.20;1659190;85;21031;-78
2021/09/14 12:26:37;;;;;;;4.37;3.58;;;;;;;26.61;36.89;97734.66;1649860;87;21046;-77
2021/09/14 12:28:59;;;;;;;3.87;3.55;;;;;;;26.69;36.93;97730.64;1650705;85;22120;-77
2021/09/14 12:31:25;;;;;;;4.10;3.70;;;;;;;26.61;36.89;97728.70;1649884;87;21059;-77
2021/09/14 12:33:52;;;;;;;5.67;4.03;;;;;;;26.56;37.00;97719.30;1649799;87;21038;-78